createdAt,value
2022-12-18T00:00:10.541Z,21.10
2022-12-18T00:02:47.123Z,18.85
2022-12-18T00:05:15.696Z,18.75
2022-12-18T00:07:44.008Z,17.63
2022-12-18T00:10:15.224Z,20.85
2022-12-18T00:12:46.615Z,23.92
2022-12-18T00:15:15.022Z,23.02
2022-12-18T00:17:43.343Z,22.55
2022-12-18T00:20:12.053Z,21.17
2022-12-18T00:22:40.410Z,22.00
2022-12-18T00:25:08.933Z,21.40
2022-12-18T00:27:38.520Z,20.08
2022-12-18T00:30:07.533Z,22.48
2022-12-18T00:32:35.818Z,22.35
2022-12-18T00:35:04.453Z,22.20
2022-12-18T00:37:33.683Z,23.85
2022-12-18T00:40:01.945Z,22.40
2022-12-18T00:42:48.391Z,22.50
2022-12-18T00:45:18.216Z,22.20
2022-12-18T00:47:46.954Z,20.35
2022-12-18T00:50:15.272Z,21.13
2022-12-18T00:52:44.050Z,20.63
2022-12-18T00:55:12.800Z,21.23
2022-12-18T00:57:41.719Z,20.13
2022-12-18T01:00:11.533Z,21.67
2022-12-18T01:02:41.639Z,21.10
2022-12-18T01:05:10.842Z,21.17
2022-12-18T01:07:39.522Z,19.63
2022-12-18T01:10:08.718Z,22.48
2022-12-18T01:12:37.340Z,22.17
2022-12-18T01:15:06.145Z,20.60
2022-12-18T01:17:34.435Z,19.88
2022-12-18T01:20:04.399Z,19.65
2022-12-18T01:22:37.222Z,22.02
2022-12-18T01:25:06.413Z,20.63
2022-12-18T01:27:36.057Z,20.90
2022-12-18T01:30:06.451Z,20.73
2022-12-18T01:32:35.028Z,18.98
2022-12-18T01:35:06.363Z,19.80
2022-12-18T01:37:34.603Z,18.30
2022-12-18T01:40:02.824Z,18.92
2022-12-18T01:42:31.105Z,19.90
2022-12-18T01:45:04.252Z,20.15
2022-12-18T01:47:34.748Z,18.67
2022-12-18T01:50:04.194Z,20.55
2022-12-18T01:52:35.724Z,20.90
2022-12-18T01:55:05.666Z,21.65
2022-12-18T01:57:34.467Z,23.33
2022-12-18T02:00:04.757Z,20.27
2022-12-18T02:02:42.131Z,18.35
2022-12-18T02:05:11.535Z,20.63
2022-12-18T02:07:45.493Z,19.30
2022-12-18T02:10:16.874Z,18.83
2022-12-18T02:12:47.147Z,19.88
2022-12-18T02:15:19.062Z,19.15
2022-12-18T02:17:51.014Z,20.80
2022-12-18T02:20:22.801Z,18.38
2022-12-18T02:23:03.888Z,21.63
2022-12-18T02:25:41.766Z,21.30
2022-12-18T02:28:14.167Z,20.10
2022-12-18T02:30:44.009Z,19.45
2022-12-18T02:33:14.153Z,19.00
2022-12-18T02:35:46.219Z,19.05
2022-12-18T02:38:15.182Z,22.08
2022-12-18T02:40:46.265Z,21.63
2022-12-18T02:43:19.814Z,20.27
2022-12-18T02:45:52.854Z,18.35
2022-12-18T02:48:22.882Z,18.08
2022-12-18T02:50:56.632Z,19.90
2022-12-18T02:53:27.222Z,19.42
2022-12-18T02:56:01.537Z,17.05
2022-12-18T02:58:34.605Z,18.60
2022-12-18T03:01:13.103Z,18.42
2022-12-18T03:03:43.298Z,17.63
2022-12-18T03:06:17.808Z,18.15
2022-12-18T03:08:47.902Z,17.80
2022-12-18T03:11:37.138Z,17.35
2022-12-18T03:14:09.763Z,16.75
2022-12-18T03:16:39.735Z,20.13
2022-12-18T03:19:11.390Z,17.45
2022-12-18T03:21:43.172Z,17.15
2022-12-18T03:24:12.615Z,17.20
2022-12-18T03:26:43.597Z,17.85
2022-12-18T03:29:16.916Z,19.20
2022-12-18T03:31:48.823Z,17.15
2022-12-18T03:34:18.451Z,18.10
2022-12-18T03:36:48.861Z,17.73
2022-12-18T03:39:18.030Z,18.85
2022-12-18T03:42:02.696Z,16.55
2022-12-18T03:44:49.627Z,18.85
2022-12-18T03:47:19.794Z,19.77
2022-12-18T03:49:50.538Z,20.27
2022-12-18T03:52:21.014Z,21.30
2022-12-18T03:54:49.982Z,19.90
2022-12-18T03:57:21.056Z,17.75
2022-12-18T03:59:58.923Z,23.45
2022-12-18T04:02:32.872Z,22.27
2022-12-18T04:05:05.637Z,22.33
2022-12-18T04:07:36.742Z,20.55
2022-12-18T04:10:09.159Z,21.33
2022-12-18T04:12:40.531Z,19.38
2022-12-18T04:15:14.585Z,20.70
2022-12-18T04:17:48.225Z,19.25
2022-12-18T04:20:17.866Z,21.08
2022-12-18T04:22:47.328Z,20.42
2022-12-18T04:25:16.432Z,20.60
2022-12-18T04:27:56.688Z,20.02
2022-12-18T04:30:26.394Z,21.50
2022-12-18T04:32:54.955Z,19.52
2022-12-18T04:35:24.335Z,19.17
2022-12-18T04:37:52.679Z,20.15
2022-12-18T04:40:20.933Z,21.92
2022-12-18T04:42:50.642Z,18.58
2022-12-18T04:45:19.376Z,18.92
2022-12-18T04:47:49.037Z,18.90
2022-12-18T04:50:17.804Z,16.58
2022-12-18T04:52:47.866Z,20.73
2022-12-18T04:55:16.389Z,19.52
2022-12-18T04:57:45.151Z,18.80
2022-12-18T05:00:14.412Z,19.98
2022-12-18T05:02:42.765Z,22.08
2022-12-18T05:05:12.848Z,20.58
2022-12-18T05:07:41.224Z,17.95
2022-12-18T05:10:10.395Z,19.70
2022-12-18T05:12:59.073Z,19.67
2022-12-18T05:15:29.676Z,20.05
2022-12-18T05:17:58.429Z,19.48
2022-12-18T05:20:28.582Z,20.48
2022-12-18T05:22:57.796Z,18.13
2022-12-18T05:25:26.554Z,20.15
2022-12-18T05:27:55.192Z,18.48
2022-12-18T05:30:23.640Z,19.38
2022-12-18T05:32:52.015Z,19.58
2022-12-18T05:35:20.477Z,17.30
2022-12-18T05:37:50.187Z,18.17
2022-12-18T05:40:18.691Z,18.33
2022-12-18T05:42:47.074Z,18.55
2022-12-18T05:45:18.578Z,16.67
2022-12-18T05:47:46.969Z,17.55
2022-12-18T05:50:15.356Z,17.00
2022-12-18T05:52:43.720Z,17.40
2022-12-18T05:55:13.464Z,15.82
2022-12-18T05:57:41.740Z,16.55
2022-12-18T06:00:10.786Z,17.83
2022-12-18T06:02:40.690Z,17.88
2022-12-18T06:05:09.991Z,16.23
2022-12-18T06:07:38.398Z,16.50
2022-12-18T06:10:07.253Z,16.40
2022-12-18T06:12:36.835Z,16.73
2022-12-18T06:15:05.189Z,15.00
2022-12-18T06:17:34.027Z,17.17
2022-12-18T06:20:02.427Z,17.02
2022-12-18T06:22:30.781Z,16.35
2022-12-18T06:25:00.426Z,15.77
2022-12-18T06:27:28.688Z,16.05
2022-12-18T06:29:58.444Z,16.63
2022-12-18T06:32:26.931Z,15.95
2022-12-18T06:34:58.606Z,17.92
2022-12-18T06:37:27.170Z,15.98
2022-12-18T06:39:55.804Z,15.20
2022-12-18T06:42:24.195Z,17.20
2022-12-18T06:44:52.991Z,14.38
2022-12-18T06:47:22.771Z,16.60
2022-12-18T06:49:51.041Z,13.63
2022-12-18T06:52:19.835Z,15.57
2022-12-18T06:54:48.198Z,15.30
2022-12-18T06:57:16.737Z,15.70
2022-12-18T06:59:45.663Z,16.45
2022-12-18T07:02:15.192Z,15.23
2022-12-18T07:04:44.986Z,15.48
2022-12-18T07:07:13.231Z,14.20
2022-12-18T07:09:41.703Z,15.27
2022-12-18T07:12:11.394Z,15.43
2022-12-18T07:14:39.743Z,16.42
2022-12-18T07:17:16.649Z,15.63
2022-12-18T07:19:48.040Z,14.80
2022-12-18T07:22:16.506Z,15.75
2022-12-18T07:24:44.977Z,15.90
2022-12-18T07:27:13.245Z,16.05
2022-12-18T07:29:41.684Z,16.20
2022-12-18T07:32:10.212Z,15.60
2022-12-18T07:34:38.893Z,16.77
2022-12-18T07:37:08.630Z,17.75
2022-12-18T07:39:37.053Z,16.88
2022-12-18T07:42:23.118Z,17.45
2022-12-18T07:44:51.741Z,16.17
2022-12-18T07:47:20.276Z,16.10
2022-12-18T07:49:48.735Z,15.55
2022-12-18T07:52:24.230Z,17.50
2022-12-18T07:55:16.853Z,16.40
2022-12-18T07:57:51.977Z,15.55
2022-12-18T08:00:22.771Z,15.45
2022-12-18T08:02:53.108Z,15.18
2022-12-18T08:05:30.028Z,14.30
2022-12-18T08:08:07.674Z,12.98
2022-12-18T08:10:36.688Z,15.50
2022-12-18T08:13:07.911Z,15.10
2022-12-18T08:15:46.350Z,15.27
2022-12-18T08:18:14.980Z,14.18
2022-12-18T08:20:46.591Z,14.68
2022-12-18T08:23:16.914Z,14.48
2022-12-18T08:25:48.128Z,13.65
2022-12-18T08:28:19.495Z,13.65
2022-12-18T08:30:48.235Z,15.32
2022-12-18T08:33:18.977Z,15.48
2022-12-18T08:35:51.969Z,13.82
2022-12-18T08:38:24.940Z,14.10
2022-12-18T08:40:58.551Z,13.93
2022-12-18T08:43:46.952Z,14.80
2022-12-18T08:46:23.092Z,14.30
2022-12-18T08:48:55.034Z,14.68
2022-12-18T08:51:26.953Z,15.00
2022-12-18T08:53:59.948Z,14.23
2022-12-18T08:56:35.179Z,15.20
2022-12-18T08:59:05.220Z,15.60
2022-12-18T09:01:33.558Z,14.68
2022-12-18T09:04:02.672Z,13.20
2022-12-18T09:06:38.059Z,14.15
2022-12-18T09:09:08.210Z,16.63
2022-12-18T09:11:36.642Z,13.40
2022-12-18T09:14:06.308Z,15.23
2022-12-18T09:16:43.969Z,15.20
2022-12-18T09:19:15.189Z,15.15
2022-12-18T09:21:48.005Z,14.38
2022-12-18T09:24:18.818Z,14.55
2022-12-18T09:26:53.632Z,13.55
2022-12-18T09:32:18.940Z,13.55
2022-12-18T09:34:50.441Z,14.15
2022-12-18T09:37:21.104Z,14.70
2022-12-18T09:39:56.992Z,14.85
2022-12-18T09:42:27.013Z,14.40
2022-12-18T09:45:01.002Z,14.43
2022-12-18T09:47:36.683Z,14.65
2022-12-18T09:50:15.723Z,14.30
2022-12-18T09:52:53.758Z,14.00
2022-12-18T09:55:39.092Z,13.50
2022-12-18T09:58:10.159Z,13.95
2022-12-18T10:00:38.830Z,13.45
2022-12-18T10:03:12.450Z,13.13
2022-12-18T10:05:46.200Z,14.80
2022-12-18T10:08:17.009Z,15.15
2022-12-18T10:10:54.915Z,14.18
2022-12-18T10:13:30.305Z,12.00
2022-12-18T10:16:06.759Z,13.30
2022-12-18T10:18:44.041Z,14.05
2022-12-18T10:21:14.547Z,14.55
2022-12-18T10:23:48.527Z,13.90
2022-12-18T10:26:22.978Z,13.85
2022-12-18T10:28:52.406Z,13.73
2022-12-18T10:31:24.671Z,12.57
2022-12-18T10:33:58.826Z,12.40
2022-12-18T10:36:35.876Z,14.40
2022-12-18T10:39:16.819Z,13.20
2022-12-18T10:41:46.858Z,14.07
2022-12-18T10:44:19.706Z,13.55
2022-12-18T10:46:48.722Z,13.48
2022-12-18T10:49:22.118Z,13.25
2022-12-18T10:51:51.097Z,13.45
2022-12-18T10:54:20.820Z,14.30
2022-12-18T10:56:50.472Z,14.00
2022-12-18T10:59:19.585Z,12.48
2022-12-18T11:01:49.732Z,13.57
2022-12-18T11:04:20.170Z,13.60
2022-12-18T11:06:59.156Z,11.45
2022-12-18T11:09:28.560Z,11.18
2022-12-18T11:12:00.026Z,10.45
2022-12-18T11:14:29.800Z,12.75
2022-12-18T11:19:48.000Z,12.88
2022-12-18T11:22:23.723Z,11.95
2022-12-18T11:25:29.535Z,11.63
2022-12-18T11:27:50.079Z,11.13
2022-12-18T11:30:23.847Z,11.95
2022-12-18T11:32:54.145Z,11.88
2022-12-18T11:35:24.975Z,11.38
2022-12-18T11:37:58.536Z,10.80
2022-12-18T11:40:30.076Z,10.35
2022-12-18T11:43:04.427Z,11.25
2022-12-18T11:45:36.174Z,10.35
2022-12-18T11:48:06.623Z,11.40
2022-12-18T11:50:49.327Z,11.13
2022-12-18T11:53:17.945Z,10.80
2022-12-18T11:55:52.173Z,10.80
2022-12-18T11:58:31.573Z,11.27
2022-12-18T12:01:05.012Z,10.85
2022-12-18T12:03:46.791Z,10.55
2022-12-18T12:06:19.935Z,11.13
2022-12-18T12:08:54.374Z,9.98
2022-12-18T12:11:27.444Z,11.02
2022-12-18T12:14:02.477Z,10.88
2022-12-18T12:16:36.365Z,11.45
2022-12-18T12:19:14.283Z,10.52
2022-12-18T12:21:43.476Z,12.48
2022-12-18T12:24:21.509Z,12.10
2022-12-18T12:26:55.253Z,11.07
2022-12-18T12:29:30.690Z,11.77
2022-12-18T12:32:07.587Z,12.30
2022-12-18T12:34:42.853Z,11.00
2022-12-18T12:37:18.082Z,10.25
2022-12-18T12:39:55.892Z,11.63
2022-12-18T12:42:45.525Z,11.40
2022-12-18T12:45:19.300Z,11.27
2022-12-18T12:47:48.754Z,10.65
2022-12-18T12:50:23.928Z,10.32
2022-12-18T12:56:13.513Z,10.82
2022-12-18T12:58:52.155Z,11.75
2022-12-18T13:01:27.978Z,11.18
2022-12-18T13:04:21.885Z,11.52
2022-12-18T13:06:59.420Z,11.02
2022-12-18T13:09:41.452Z,11.60
2022-12-18T13:12:42.283Z,11.57
2022-12-18T13:15:26.126Z,10.98
2022-12-18T13:18:07.455Z,11.20
2022-12-18T13:21:03.281Z,10.75
2022-12-18T13:24:09.020Z,11.55
2022-12-18T13:26:41.024Z,11.27
2022-12-18T13:29:47.859Z,11.70
2022-12-18T13:32:49.229Z,11.40
2022-12-18T13:35:38.272Z,10.52
2022-12-18T13:38:23.133Z,11.07
2022-12-18T13:41:05.643Z,11.90
2022-12-18T13:43:43.893Z,12.93
2022-12-18T13:46:30.838Z,12.05
2022-12-18T13:49:02.857Z,10.75
2022-12-18T13:51:56.729Z,11.23
2022-12-18T13:54:35.342Z,12.32
2022-12-18T13:57:04.330Z,12.38
2022-12-18T13:59:37.915Z,10.93
2022-12-18T14:05:01.059Z,11.50
2022-12-18T14:07:45.162Z,13.60
2022-12-18T14:10:48.344Z,12.85
2022-12-18T14:13:26.308Z,12.00
2022-12-18T14:16:00.903Z,12.00
2022-12-18T14:18:42.559Z,12.02
2022-12-18T14:21:20.611Z,12.40
2022-12-18T14:23:49.139Z,11.20
2022-12-18T14:26:28.185Z,13.77
2022-12-18T14:28:57.189Z,12.02
2022-12-18T14:31:26.673Z,12.68
2022-12-18T14:33:55.559Z,12.80
2022-12-18T14:36:25.828Z,13.27
2022-12-18T14:38:55.663Z,11.43
2022-12-18T14:41:24.214Z,12.68
2022-12-18T14:43:54.782Z,14.05
2022-12-18T14:46:37.359Z,12.50
2022-12-18T14:49:07.076Z,12.38
2022-12-18T14:51:36.751Z,12.73
2022-12-18T14:54:08.917Z,12.13
2022-12-18T14:56:38.159Z,12.88
2022-12-18T14:59:25.465Z,13.20
2022-12-18T15:02:20.686Z,10.55
2022-12-18T15:04:56.696Z,13.07
2022-12-18T15:07:32.522Z,12.55
2022-12-18T15:10:05.180Z,11.90
2022-12-18T15:12:40.610Z,11.50
2022-12-18T15:15:26.834Z,13.65
2022-12-18T15:18:08.659Z,12.88
2022-12-18T15:20:42.517Z,12.35
2022-12-18T15:23:20.874Z,12.50
2022-12-18T15:25:52.249Z,12.35
2022-12-18T15:28:22.257Z,11.82
2022-12-18T15:31:07.420Z,11.95
2022-12-18T15:33:38.905Z,12.27
2022-12-18T15:36:08.336Z,11.88
2022-12-18T15:38:36.899Z,10.60
2022-12-18T15:41:24.564Z,13.95
2022-12-18T15:43:57.735Z,13.00
2022-12-18T15:46:55.263Z,14.02
2022-12-18T15:49:45.288Z,12.13
2022-12-18T15:52:15.055Z,12.93
2022-12-18T15:55:01.398Z,11.52
2022-12-18T15:57:29.822Z,12.50
2022-12-18T15:59:59.287Z,12.35
2022-12-18T16:02:30.288Z,13.45
2022-12-18T16:05:00.244Z,11.70
2022-12-18T16:07:31.081Z,12.30
2022-12-18T16:10:02.568Z,12.52
2022-12-18T16:12:31.183Z,13.35
2022-12-18T16:15:01.457Z,13.40
2022-12-18T16:17:29.833Z,13.15
2022-12-18T16:20:00.075Z,14.00
2022-12-18T16:22:29.084Z,13.15
2022-12-18T16:25:01.686Z,12.82
2022-12-18T16:27:30.160Z,12.77
2022-12-18T16:30:02.855Z,12.32
2022-12-18T16:32:31.290Z,12.65
2022-12-18T16:35:03.522Z,11.73
2022-12-18T16:37:32.893Z,12.98
2022-12-18T16:40:04.905Z,11.55
2022-12-18T16:42:37.751Z,13.95
2022-12-18T16:45:07.028Z,14.88
2022-12-18T16:47:35.543Z,15.80
2022-12-18T16:50:07.140Z,13.90
2022-12-18T16:52:41.066Z,12.00
2022-12-18T16:55:12.162Z,12.82
2022-12-18T16:57:45.107Z,13.30
2022-12-18T17:00:14.575Z,13.15
2022-12-18T17:02:43.201Z,13.10
2022-12-18T17:05:14.725Z,13.40
2022-12-18T17:07:43.102Z,11.23
2022-12-18T17:10:12.150Z,12.70
2022-12-18T17:12:40.454Z,12.30
2022-12-18T17:15:09.665Z,13.60
2022-12-18T17:17:38.043Z,14.30
2022-12-18T17:20:09.681Z,13.13
2022-12-18T17:22:42.090Z,13.98
2022-12-18T17:25:18.225Z,12.02
2022-12-18T17:27:46.854Z,13.32
2022-12-18T17:30:15.640Z,13.73
2022-12-18T17:32:43.931Z,11.52
2022-12-18T17:35:12.275Z,12.85
2022-12-18T17:37:44.464Z,14.23
2022-12-18T17:40:13.219Z,13.02
2022-12-18T17:42:41.486Z,13.85
2022-12-18T17:45:10.400Z,13.55
2022-12-18T17:47:38.921Z,13.65
2022-12-18T17:50:07.595Z,14.13
2022-12-18T17:52:37.470Z,12.85
2022-12-18T17:55:07.675Z,13.80
2022-12-18T17:57:36.557Z,14.55
2022-12-18T18:00:05.869Z,12.45
2022-12-18T18:02:38.153Z,12.82
2022-12-18T18:05:06.954Z,13.00
2022-12-18T18:07:35.720Z,12.98
2022-12-18T18:10:04.193Z,13.43
2022-12-18T18:12:51.331Z,13.07
2022-12-18T18:15:19.898Z,13.32
2022-12-18T18:17:48.685Z,12.80
2022-12-18T18:20:22.827Z,12.32
2022-12-18T18:22:54.294Z,15.18
2022-12-18T18:25:22.686Z,14.43
2022-12-18T18:27:52.529Z,13.10
2022-12-18T18:30:26.940Z,13.48
2022-12-18T18:32:55.508Z,13.43
2022-12-18T18:35:53.339Z,12.80
2022-12-18T18:38:27.117Z,13.35
2022-12-18T18:41:01.450Z,13.25
2022-12-18T18:43:47.391Z,14.60
2022-12-18T18:46:21.916Z,11.88
2022-12-18T18:48:53.017Z,12.27
2022-12-18T18:51:34.523Z,13.52
2022-12-18T18:54:11.110Z,12.93
2022-12-18T18:57:40.099Z,12.63
2022-12-18T18:59:31.607Z,12.82
2022-12-18T19:02:04.553Z,12.90
2022-12-18T19:04:33.471Z,14.23
2022-12-18T19:07:01.817Z,13.32
2022-12-18T19:09:31.215Z,12.57
2022-12-18T19:12:20.003Z,12.75
2022-12-18T19:14:48.593Z,13.73
2022-12-18T19:17:18.520Z,14.27
2022-12-18T19:19:50.893Z,12.80
2022-12-18T19:22:22.295Z,13.57
2022-12-18T19:24:50.678Z,14.55
2022-12-18T19:27:19.041Z,12.85
2022-12-18T19:29:50.705Z,13.80
2022-12-18T19:32:20.457Z,14.82
2022-12-18T19:34:48.813Z,14.52
2022-12-18T19:37:18.767Z,14.65
2022-12-18T19:39:47.580Z,14.38
2022-12-18T19:42:21.444Z,14.55
2022-12-18T19:44:53.366Z,13.23
2022-12-18T19:47:23.181Z,14.38
2022-12-18T19:49:51.658Z,13.15
2022-12-18T19:52:20.050Z,13.05
2022-12-18T19:54:48.621Z,14.15
2022-12-18T19:57:18.203Z,13.15
2022-12-18T19:59:46.791Z,14.35
2022-12-18T20:02:16.818Z,13.70
2022-12-18T20:04:46.790Z,14.98
2022-12-18T20:07:15.106Z,14.70
2022-12-18T20:09:44.822Z,15.57
2022-12-18T20:12:14.326Z,13.82
2022-12-18T20:14:42.676Z,15.07
2022-12-18T20:17:11.332Z,14.63
2022-12-18T20:19:39.908Z,14.63
2022-12-18T20:22:09.820Z,13.80
2022-12-18T20:24:38.229Z,13.93
2022-12-18T20:27:10.958Z,14.00
2022-12-18T20:29:43.434Z,14.05
2022-12-18T20:32:11.835Z,14.15
2022-12-18T20:34:40.170Z,14.35
2022-12-18T20:37:10.653Z,13.90
2022-12-18T20:39:40.409Z,13.85
2022-12-18T20:42:08.929Z,16.27
2022-12-18T20:44:37.422Z,16.10
2022-12-18T20:47:08.485Z,16.55
2022-12-18T20:49:37.336Z,15.20
2022-12-18T20:52:07.407Z,15.70
2022-12-18T20:54:37.040Z,16.45
2022-12-18T20:57:05.575Z,15.60
2022-12-18T20:59:34.216Z,13.73
2022-12-18T21:02:02.685Z,15.70
2022-12-18T21:04:31.348Z,15.98
2022-12-18T21:07:02.573Z,15.80
2022-12-18T21:09:38.485Z,16.58
2022-12-18T21:12:35.126Z,15.60
2022-12-18T21:15:11.521Z,14.07
2022-12-18T21:17:44.774Z,15.50
2022-12-18T21:20:18.030Z,18.08
2022-12-18T21:22:50.148Z,13.60
2022-12-18T21:25:18.873Z,16.83
2022-12-18T21:27:49.087Z,15.60
2022-12-18T21:30:17.932Z,15.82
2022-12-18T21:32:46.351Z,15.65
2022-12-18T21:35:15.445Z,15.52
2022-12-18T21:37:45.699Z,15.45
2022-12-18T21:40:14.435Z,14.90
2022-12-18T21:43:00.664Z,15.20
2022-12-18T21:45:30.298Z,16.45
2022-12-18T21:47:58.575Z,14.93
2022-12-18T21:50:26.951Z,15.55
2022-12-18T21:52:55.497Z,15.98
2022-12-18T21:55:23.953Z,16.10
2022-12-18T21:57:52.200Z,15.20
2022-12-18T22:00:20.712Z,14.38
2022-12-18T22:03:13.359Z,15.18
2022-12-18T22:05:42.154Z,14.68
2022-12-18T22:08:10.634Z,15.13
2022-12-18T22:10:39.019Z,17.45
2022-12-18T22:13:07.873Z,16.20
2022-12-18T22:15:36.497Z,15.68
2022-12-18T22:18:06.273Z,16.45
2022-12-18T22:20:34.599Z,14.80
2022-12-18T22:23:06.163Z,14.52
2022-12-18T22:25:35.291Z,15.43
2022-12-18T22:28:18.938Z,13.88
2022-12-18T22:30:47.766Z,16.88
2022-12-18T22:33:18.840Z,14.82
2022-12-18T22:35:47.405Z,14.85
2022-12-18T22:38:18.985Z,15.88
2022-12-18T22:40:47.721Z,14.30
2022-12-18T22:43:16.304Z,15.45
2022-12-18T22:45:47.809Z,14.63
2022-12-18T22:48:16.743Z,15.80
2022-12-18T22:50:46.789Z,14.88
2022-12-18T22:53:15.063Z,15.60
2022-12-18T22:55:43.470Z,14.98
2022-12-18T22:58:11.850Z,14.20
2022-12-18T23:00:40.229Z,14.35
2022-12-18T23:03:09.699Z,13.95
2022-12-18T23:05:38.210Z,15.70
2022-12-18T23:08:07.977Z,15.27
2022-12-18T23:10:38.626Z,15.15
2022-12-18T23:13:07.121Z,16.33
2022-12-18T23:15:35.362Z,15.00
2022-12-18T23:18:03.885Z,15.82
2022-12-18T23:20:32.218Z,16.42
2022-12-18T23:23:00.502Z,14.80
2022-12-18T23:25:30.308Z,16.17
2022-12-18T23:27:58.854Z,14.82
2022-12-18T23:30:27.145Z,13.60
2022-12-18T23:32:55.614Z,14.18
2022-12-18T23:35:23.981Z,15.82
2022-12-18T23:38:00.113Z,13.98
2022-12-18T23:40:30.911Z,15.60
2022-12-18T23:43:00.242Z,15.80
2022-12-18T23:45:28.628Z,14.82
2022-12-18T23:47:57.002Z,16.02
2022-12-18T23:50:29.993Z,14.82
2022-12-18T23:53:03.253Z,14.95
2022-12-18T23:55:35.627Z,14.95
2022-12-18T23:58:03.954Z,14.57
